Time;durP1;ratioP1;P1;durP2;ratioP2;P2;SDS_P1;SDS_P2;PMS_P1;PMS_P2;Temp;Humidity;BMP_temperature;BMP_pressure;BME280_temperature;BME280_humidity;BME280_pressure;Samples;Min_cycle;Max_cycle;Signal;HPM_P1;HPM_P2
2023/08/07 00:01:13;;;;;;;2.60;1.60;;;20.00;85.20;;;;;;4951978;28;20130;-39
2023/08/07 00:03:41;;;;;;;2.03;1.45;;;;;;;;;;4951587;28;20130;-40
2023/08/07 00:06:07;;;;;;;2.10;1.50;;;20.80;84.70;;;;;;4951631;28;20146;-38
2023/08/07 00:08:36;;;;;;;2.50;1.70;;;21.10;85.30;;;;;;4966446;28;20145;-35
2023/08/07 00:11:07;;;;;;;2.95;1.60;;;20.80;72.50;;;;;;4970983;28;20073;-36
2023/08/07 00:13:35;;;;;;;1.58;1.40;;;20.40;73.30;;;;;;4970539;28;20134;-33
2023/08/07 00:16:01;;;;;;;2.42;1.77;;;21.50;85.00;;;;;;4970075;28;20133;-38
2023/08/07 00:18:29;;;;;;;2.25;1.65;;;19.80;84.70;;;;;;4970657;28;20130;-40
2023/08/07 00:20:56;;;;;;;2.00;1.60;;;;;;;;;;4970025;28;20133;-36
2023/08/07 00:23:22;;;;;;;1.77;1.48;;;20.20;84.50;;;;;;4970695;28;20138;-39
2023/08/07 00:25:49;;;;;;;1.77;1.30;;;;;;;;;;4970924;28;20172;-34
2023/08/07 00:28:16;;;;;;;2.38;1.58;;;19.50;84.20;;;;;;4970584;28;20125;-38
2023/08/07 00:30:44;;;;;;;1.55;1.38;;;19.40;66.90;;;;;;4967815;28;20135;-35
2023/08/07 00:33:12;;;;;;;1.67;1.40;;;;;;;;;;4960710;28;20130;-38
2023/08/07 00:35:38;;;;;;;1.70;1.40;;;19.30;84.00;;;;;;4960263;28;20057;-36
2023/08/07 00:38:05;;;;;;;1.80;1.48;;;20.50;84.70;;;;;;4972948;28;20114;-36
2023/08/07 00:40:38;;;;;;;1.80;1.42;;;20.90;75.30;;;;;;4960960;28;20236;-34
2023/08/07 00:43:05;;;;;;;1.58;1.30;;;21.30;85.10;;;;;;4960828;28;20054;-39
2023/08/07 00:45:33;;;;;;;1.60;1.50;;;20.10;84.80;;;;;;4960322;28;20129;-37
2023/08/07 00:48:02;;;;;;;2.50;1.50;;;19.40;84.10;;;;;;4961123;28;20131;-36
2023/08/07 00:50:29;;;;;;;1.75;1.40;;;21.20;85.00;;;;;;4958832;28;20058;-38
2023/08/07 00:52:55;;;;;;;2.03;1.48;;;19.70;84.20;;;;;;4960374;28;20128;-38
2023/08/07 00:55:22;;;;;;;3.03;1.42;;;20.60;69.50;;;;;;4963013;28;20133;-35
2023/08/07 00:57:49;;;;;;;1.98;1.40;;;20.90;84.80;;;;;;4959262;28;20566;-39
2023/08/07 01:00:16;;;;;;;1.83;1.50;;;21.40;85.20;;;;;;4960118;28;20125;-38
2023/08/07 01:02:43;;;;;;;2.15;1.63;;;20.80;74.00;;;;;;4961239;28;20131;-36
2023/08/07 01:05:11;;;;;;;1.60;1.30;;;20.30;84.60;;;;;;4956211;28;20058;-36
2023/08/07 01:07:38;;;;;;;1.75;1.30;;;20.40;85.50;;;;;;4951017;28;20130;-37
2023/08/07 01:10:06;;;;;;;1.83;1.33;;;20.80;74.70;;;;;;4955495;28;20121;-36
2023/08/07 01:12:36;;;;;;;1.70;1.35;;;20.50;67.50;;;;;;4970002;28;20105;-34
2023/08/07 01:15:04;;;;;;;1.63;1.30;;;20.20;84.60;;;;;;4970402;28;20146;-39
2023/08/07 01:17:33;;;;;;;1.73;1.40;;;20.20;77.90;;;;;;4970416;28;20130;-38
2023/08/07 01:19:59;;;;;;;2.15;1.58;;;20.00;84.80;;;;;;4970266;28;20132;-40
2023/08/07 01:22:27;;;;;;;1.52;1.30;;;21.00;84.90;;;;;;4969805;28;20149;-40
2023/08/07 01:24:54;;;;;;;1.50;1.30;;;21.20;82.60;;;;;;4970151;28;20085;-37
2023/08/07 01:27:32;;;;;;;2.17;1.60;;;20.70;85.10;;;;;;4966700;28;20500;-35
2023/08/07 01:30:00;;;;;;;1.50;1.30;;;20.50;84.70;;;;;;4950806;28;20066;-37
2023/08/07 01:32:30;;;;;;;3.05;1.25;;;20.50;67.50;;;;;;4950951;28;20134;-32
2023/08/07 01:34:56;;;;;;;2.30;1.33;;;20.40;85.10;;;;;;4950867;28;20130;-36
2023/08/07 01:37:24;;;;;;;1.45;1.35;;;;;;;;;;4962731;28;20133;-34
2023/08/07 01:39:52;;;;;;;2.38;1.30;;;20.90;85.40;;;;;;4956360;28;20564;-37
2023/08/07 01:42:19;;;;;;;2.08;1.33;;;;;;;;;;4950383;28;20572;-38
2023/08/07 01:44:46;;;;;;;1.77;1.30;;;;;;;;;;4950659;28;20149;-36
2023/08/07 01:47:13;;;;;;;1.55;1.15;;;20.50;84.80;;;;;;4958426;28;20142;-37
2023/08/07 01:49:40;;;;;;;2.45;1.38;;;;;;;;;;4969536;28;20405;-34
2023/08/07 01:52:08;;;;;;;1.80;1.17;;;20.20;84.90;;;;;;4969270;28;20082;-36
2023/08/07 01:54:35;;;;;;;1.80;1.40;;;20.70;85.00;;;;;;4950439;28;20052;-39
2023/08/07 01:57:04;;;;;;;1.95;1.45;;;20.50;67.60;;;;;;4950466;28;20576;-33
2023/08/07 01:59:30;;;;;;;1.65;1.25;;;20.90;81.10;;;;;;4950623;28;20486;-37
2023/08/07 02:01:57;;;;;;;1.65;1.20;;;19.30;84.20;;;;;;4952999;28;20159;-35
2023/08/07 02:04:24;;;;;;;1.90;1.25;;;19.90;76.10;;;;;;4953392;28;20691;-35
2023/08/07 02:06:50;;;;;;;1.67;1.38;;;21.20;75.70;;;;;;4953630;28;20117;-35
2023/08/07 02:09:17;;;;;;;1.42;1.30;;;20.20;85.40;;;;;;4960869;28;20125;-37
2023/08/07 02:11:44;;;;;;;2.15;1.38;;;20.30;84.70;;;;;;4972955;28;20133;-36
2023/08/07 02:14:12;;;;;;;1.92;1.30;;;20.40;68.50;;;;;;4972867;28;20130;-37
2023/08/07 02:16:39;;;;;;;2.25;1.30;;;;;;;;;;4972887;28;20138;-34
2023/08/07 02:19:06;;;;;;;1.48;1.20;;;21.10;85.10;;;;;;4972477;28;20500;-39
2023/08/07 02:21:32;;;;;;;1.90;1.23;;;20.00;84.90;;;;;;4972500;28;20130;-36
2023/08/07 02:23:59;;;;;;;2.30;1.40;;;19.20;77.30;;;;;;4967704;28;20130;-35
2023/08/07 02:26:26;;;;;;;2.00;1.30;;;20.50;71.50;;;;;;4968320;28;20138;-36
2023/08/07 02:28:52;;;;;;;1.80;1.50;;;20.30;85.00;;;;;;4972551;28;20126;-36
2023/08/07 02:31:20;;;;;;;1.60;1.23;;;20.30;70.60;;;;;;4972386;28;20134;-36
2023/08/07 02:33:47;;;;;;;1.67;1.40;;;;;;;;;;4973037;28;20133;-38
2023/08/07 02:36:14;;;;;;;1.63;1.10;;;20.30;84.70;;;;;;4972216;28;20126;-40
2023/08/07 02:38:41;;;;;;;1.98;1.42;;;20.00;84.50;;;;;;4972261;28;20134;-39
2023/08/07 02:41:08;;;;;;;1.45;1.20;;;21.00;78.30;;;;;;4972099;28;20131;-35
2023/08/07 02:43:34;;;;;;;1.30;1.20;;;20.40;85.50;;;;;;4970944;28;20135;-39
2023/08/07 02:46:02;;;;;;;2.00;1.30;;;;;;;;;;4972606;28;20073;-35
2023/08/07 02:48:30;;;;;;;2.00;1.20;;;19.80;67.20;;;;;;4954513;28;20130;-35
2023/08/07 02:50:56;;;;;;;1.83;1.30;;;20.40;85.00;;;;;;4953174;28;20139;-35
2023/08/07 02:53:23;;;;;;;1.33;1.15;;;21.30;85.70;;;;;;4952563;28;20134;-35
2023/08/07 02:55:50;;;;;;;1.77;1.40;;;;;;;;;;4953170;28;20485;-34
2023/08/07 02:58:17;;;;;;;2.65;1.27;;;20.00;84.50;;;;;;4954035;28;20122;-37
2023/08/07 03:00:44;;;;;;;1.30;1.20;;;20.40;85.70;;;;;;4952819;28;20130;-37
2023/08/07 03:03:10;;;;;;;2.35;1.38;;;20.10;84.50;;;;;;4953540;28;20078;-39
2023/08/07 03:05:38;;;;;;;1.42;1.30;;;21.00;85.50;;;;;;4972295;28;20138;-35
2023/08/07 03:08:05;;;;;;;1.10;1.02;;;20.40;85.60;;;;;;4972197;28;20150;-35
2023/08/07 03:10:32;;;;;;;2.47;1.38;;;19.80;70.30;;;;;;4972039;28;20130;-35
2023/08/07 03:12:59;;;;;;;2.28;1.40;;;20.20;77.60;;;;;;4971226;28;20138;-35
2023/08/07 03:15:25;;;;;;;1.63;1.23;;;20.10;85.30;;;;;;4962959;28;20134;-35
2023/08/07 03:17:52;;;;;;;1.65;1.23;;;20.60;85.60;;;;;;4952559;28;20086;-38
2023/08/07 03:20:19;;;;;;;1.45;1.35;;;20.40;70.40;;;;;;4958129;28;20129;-36
2023/08/07 03:22:47;;;;;;;3.20;1.40;;;19.80;84.70;;;;;;4971817;28;20054;-37
2023/08/07 03:25:13;;;;;;;4.32;1.42;;;20.60;84.70;;;;;;4972081;28;20051;-38
2023/08/07 03:27:40;;;;;;;1.92;1.30;;;20.20;84.90;;;;;;4971842;28;20137;-37
2023/08/07 03:30:08;;;;;;;1.75;1.40;;;20.20;68.20;;;;;;4971330;28;20126;-36
2023/08/07 03:32:34;;;;;;;1.30;1.20;;;20.70;81.80;;;;;;4957792;28;20134;-35
2023/08/07 03:35:01;;;;;;;2.78;1.30;;;20.30;71.00;;;;;;4952372;28;20085;-32
2023/08/07 03:37:28;;;;;;;2.40;1.25;;;20.80;85.30;;;;;;4965172;28;20082;-36
2023/08/07 03:39:56;;;;;;;1.48;1.30;;;20.00;84.60;;;;;;4971397;28;20130;-35
2023/08/07 03:42:23;;;;;;;1.73;1.20;;;20.00;84.60;;;;;;4971407;28;20126;-38
2023/08/07 03:44:50;;;;;;;3.75;1.40;;;;;;;;;;4971118;28;20082;-36
2023/08/07 03:47:16;;;;;;;1.52;1.20;;;21.10;80.20;;;;;;4963751;28;20126;-37
2023/08/07 03:49:43;;;;;;;1.60;1.30;;;20.70;85.30;;;;;;4953558;28;20134;-37
2023/08/07 03:52:10;;;;;;;2.38;1.20;;;20.20;73.20;;;;;;4952110;28;20130;-37
2023/08/07 03:54:36;;;;;;;1.80;1.20;;;20.60;84.90;;;;;;4952166;28;20134;-36
2023/08/07 03:57:05;;;;;;;1.88;1.10;;;20.30;67.40;;;;;;4951773;28;20126;-36
2023/08/07 03:59:31;;;;;;;1.33;1.20;;;19.30;84.20;;;;;;4951876;28;20147;-38
2023/08/07 04:01:58;;;;;;;2.92;1.20;;;20.60;81.90;;;;;;4952228;28;20130;-35
2023/08/07 04:04:25;;;;;;;1.67;1.40;;;;;;;;;;4952801;28;20138;-39
2023/08/07 04:06:52;;;;;;;1.27;1.05;;;;;;;;;;4951892;28;20134;-33
2023/08/07 04:09:19;;;;;;;2.55;1.27;;;;;;;;;;4951551;28;20138;-35
2023/08/07 04:11:47;;;;;;;1.52;1.20;;;;;;;;;;4951670;28;20133;-32
2023/08/07 04:14:15;;;;;;;2.88;1.27;;;19.80;85.00;;;;;;4951946;28;20057;-37
2023/08/07 04:16:42;;;;;;;2.03;1.27;;;20.50;85.30;;;;;;4958476;28;20150;-36
2023/08/07 04:19:09;;;;;;;1.77;1.30;;;;;;;;;;4970894;28;20050;-33
2023/08/07 04:21:36;;;;;;;1.38;1.20;;;20.00;84.70;;;;;;4964188;28;20138;-38
2023/08/07 04:24:07;;;;;;;1.30;1.10;;;;;;;;;;4950342;28;20130;-36
2023/08/07 04:26:35;;;;;;;1.77;1.33;;;19.10;84.60;;;;;;4951623;28;20550;-40
2023/08/07 04:29:02;;;;;;;1.63;1.13;;;;;;;;;;4951714;28;20055;-37
2023/08/07 04:31:31;;;;;;;3.13;1.17;;;20.30;67.50;;;;;;4951786;28;20079;-32
2023/08/07 04:33:57;;;;;;;1.95;1.20;;;20.00;84.80;;;;;;4951225;28;20527;-36
2023/08/07 04:36:24;;;;;;;1.63;1.10;;;19.80;85.00;;;;;;4955585;28;20047;-39
2023/08/07 04:38:51;;;;;;;1.73;1.30;;;20.20;67.40;;;;;;4958789;28;20105;-37
2023/08/07 04:41:18;;;;;;;1.23;1.10;;;20.60;85.00;;;;;;4951774;28;20193;-38
2023/08/07 04:43:44;;;;;;;1.65;1.10;;;20.20;85.20;;;;;;4951202;28;20485;-36
2023/08/07 04:46:11;;;;;;;2.13;1.80;;;;;;;;;;4951386;28;20130;-36
2023/08/07 04:48:39;;;;;;;3.15;1.50;;;19.40;84.40;;;;;;4970060;28;20050;-40
2023/08/07 04:51:06;;;;;;;2.38;1.75;;;19.30;84.40;;;;;;4970472;28;20138;-35
2023/08/07 04:53:33;;;;;;;1.83;1.20;;;;;;;;;;4966720;28;20130;-35
2023/08/07 04:56:00;;;;;;;1.08;0.90;;;20.20;85.30;;;;;;4961575;28;20134;-34
2023/08/07 04:58:27;;;;;;;1.30;1.20;;;;;;;;;;4960721;28;20559;-32
2023/08/07 05:00:56;;;;;;;1.20;1.02;;;20.60;78.50;;;;;;4962004;28;20043;-37
2023/08/07 05:03:23;;;;;;;1.70;1.10;;;19.90;84.80;;;;;;4961182;28;20077;-39
2023/08/07 05:05:51;;;;;;;2.88;1.30;;;20.20;67.50;;;;;;4959938;28;20134;-36
2023/08/07 05:08:18;;;;;;;2.22;1.20;;;;;;;;;;4959933;28;20142;-33
2023/08/07 05:10:45;;;;;;;1.80;1.30;;;19.90;73.20;;;;;;4974176;28;20116;-38
2023/08/07 05:13:12;;;;;;;1.17;0.95;;;19.90;76.20;;;;;;4962717;28;20126;-36
2023/08/07 05:15:40;;;;;;;2.10;1.38;;;20.10;77.20;;;;;;4959841;28;20150;-36
2023/08/07 05:18:07;;;;;;;1.55;1.15;;;20.50;85.00;;;;;;4960962;28;20089;-36
2023/08/07 05:20:34;;;;;;;2.13;1.20;;;20.10;84.80;;;;;;4959349;28;20130;-36
2023/08/07 05:23:02;;;;;;;1.92;1.23;;;20.50;70.40;;;;;;4970053;28;20134;-34
2023/08/07 05:25:29;;;;;;;1.98;1.20;;;;;;;;;;4966469;28;20130;-37
2023/08/07 05:27:56;;;;;;;2.55;1.42;;;20.20;85.00;;;;;;4959384;28;20070;-35
2023/08/07 05:30:23;;;;;;;1.60;1.20;;;;;;;;;;4960451;28;20119;-36
2023/08/07 05:32:49;;;;;;;1.83;1.10;;;19.80;85.00;;;;;;4958965;28;20130;-39
2023/08/07 05:35:16;;;;;;;1.83;1.20;;;20.40;84.90;;;;;;4960674;28;20556;-36
2023/08/07 05:37:43;;;;;;;4.07;1.30;;;19.30;73.80;;;;;;4965967;28;20142;-35
2023/08/07 05:40:12;;;;;;;2.45;1.25;;;20.40;77.40;;;;;;4973268;28;20101;-37
2023/08/07 05:42:40;;;;;;;2.03;1.30;;;;;;;;;;4973044;28;20047;-34
2023/08/07 05:45:08;;;;;;;1.75;1.20;;;19.90;67.30;;;;;;4971929;28;20057;-33
2023/08/07 05:47:35;;;;;;;2.67;1.10;;;20.10;84.90;;;;;;4962499;28;20584;-36
2023/08/07 05:50:02;;;;;;;1.50;1.30;;;20.00;78.10;;;;;;4953896;28;20126;-34
2023/08/07 05:52:28;;;;;;;1.90;1.20;;;21.20;85.50;;;;;;4964812;28;20051;-37
2023/08/07 05:54:55;;;;;;;2.08;1.30;;;;;;;;;;4973303;28;20142;-36
2023/08/07 05:57:23;;;;;;;4.25;1.30;;;20.20;84.80;;;;;;4972950;28;20086;-39
2023/08/07 05:59:50;;;;;;;1.70;1.27;;;19.40;84.90;;;;;;4971181;28;20126;-39
2023/08/07 06:02:17;;;;;;;3.10;1.30;;;20.30;84.90;;;;;;4972607;28;20134;-36
2023/08/07 06:04:45;;;;;;;3.30;1.30;;;;;;;;;;4973023;28;20484;-33
2023/08/07 06:07:11;;;;;;;3.53;1.40;;;20.30;84.90;;;;;;4972829;28;20065;-36
2023/08/07 06:09:38;;;;;;;2.60;1.38;;;20.20;81.50;;;;;;4965119;28;20047;-37
2023/08/07 06:12:05;;;;;;;2.80;1.40;;;20.40;81.40;;;;;;4961892;28;20452;-37
2023/08/07 06:14:34;;;;;;;3.28;1.20;;;20.90;68.50;;;;;;4962749;28;20054;-36
2023/08/07 06:17:01;;;;;;;2.88;1.58;;;;;;;;;;4961466;28;20101;-35
2023/08/07 06:19:28;;;;;;;2.28;1.30;;;;;;;;;;4960858;28;20066;-34
2023/08/07 06:21:55;;;;;;;2.83;1.40;;;21.20;85.40;;;;;;4955302;28;20047;-39
2023/08/07 06:24:22;;;;;;;2.85;1.50;;;20.60;70.70;;;;;;4953207;28;20054;-36
2023/08/07 06:26:50;;;;;;;2.97;1.45;;;20.50;84.90;;;;;;4953670;28;20134;-37
2023/08/07 06:29:17;;;;;;;3.20;1.52;;;20.20;81.10;;;;;;4952846;28;20475;-37
2023/08/07 06:31:45;;;;;;;2.88;1.67;;;19.90;84.70;;;;;;4953696;28;20083;-36
2023/08/07 06:34:12;;;;;;;2.88;1.40;;;19.50;84.40;;;;;;4965523;28;20130;-37
2023/08/07 06:36:39;;;;;;;2.65;1.20;;;20.00;72.60;;;;;;4959370;28;20055;-35
2023/08/07 06:39:05;;;;;;;2.58;1.48;;;19.90;84.60;;;;;;4961917;28;20076;-36
2023/08/07 06:41:32;;;;;;;4.20;1.40;;;20.40;85.30;;;;;;4963298;28;20130;-35
2023/08/07 06:43:59;;;;;;;2.72;1.30;;;20.10;71.50;;;;;;4963533;28;20504;-36
2023/08/07 06:46:27;;;;;;;2.72;1.60;;;20.10;85.00;;;;;;4968442;28;20078;-36
2023/08/07 06:48:55;;;;;;;3.33;1.30;;;20.30;84.90;;;;;;4952240;29;20055;-37
2023/08/07 06:51:22;;;;;;;2.38;1.30;;;19.70;85.00;;;;;;4953002;29;20131;-38
2023/08/07 06:53:49;;;;;;;1.65;1.27;;;21.10;85.70;;;;;;4952889;29;20134;-35
2023/08/07 06:56:15;;;;;;;2.20;1.42;;;19.70;72.90;;;;;;4952653;29;20130;-37
2023/08/07 06:58:42;;;;;;;2.78;1.27;;;20.10;85.20;;;;;;4965643;28;20464;-38
2023/08/07 07:01:09;;;;;;;2.45;1.40;;;20.00;84.90;;;;;;4968054;28;20070;-37
2023/08/07 07:03:36;;;;;;;3.63;1.60;;;;;;;;;;4972182;28;20476;-37
2023/08/07 07:06:04;;;;;;;5.75;1.50;;;20.30;85.30;;;;;;4960724;28;20133;-37
2023/08/07 07:08:30;;;;;;;3.72;1.60;;;20.40;85.50;;;;;;4952875;28;20142;-37
2023/08/07 07:10:58;;;;;;;2.03;1.40;;;20.10;84.80;;;;;;4952857;28;20131;-39
2023/08/07 07:13:25;;;;;;;3.53;1.60;;;20.00;84.80;;;;;;4955115;28;20419;-37
2023/08/07 07:15:54;;;;;;;2.50;1.38;;;20.40;67.50;;;;;;4960631;28;20130;-39
2023/08/07 07:18:21;;;;;;;2.40;1.45;;;20.40;84.80;;;;;;4971468;28;20062;-40
2023/08/07 07:20:47;;;;;;;2.08;1.27;;;20.70;85.20;;;;;;4966045;28;20122;-36
2023/08/07 07:23:15;;;;;;;2.58;1.20;;;20.50;68.10;;;;;;4959470;28;20145;-36
2023/08/07 07:25:42;;;;;;;3.08;1.23;;;20.70;67.30;;;;;;4971391;28;20145;-36
2023/08/07 07:28:09;;;;;;;4.70;1.38;;;20.10;84.10;;;;;;4971956;28;20131;-36
2023/08/07 07:30:35;;;;;;;4.25;1.50;;;20.60;84.10;;;;;;4971573;28;20137;-37
2023/08/07 07:33:03;;;;;;;1.98;1.30;;;;;;;;;;4965945;28;20126;-36
2023/08/07 07:35:29;;;;;;;6.55;1.50;;;21.60;84.60;;;;;;4966669;28;20109;-37
2023/08/07 07:37:56;;;;;;;2.47;1.45;;;20.30;83.40;;;;;;4970436;28;20125;-36
2023/08/07 07:40:24;;;;;;;3.40;1.40;;;21.10;70.60;;;;;;4971523;28;20126;-35
2023/08/07 07:42:51;;;;;;;2.55;1.48;;;;;;;;;;4959016;28;20155;-33
2023/08/07 07:45:18;;;;;;;2.45;1.38;;;21.00;83.50;;;;;;4961917;28;20544;-37
2023/08/07 07:47:45;;;;;;;3.25;1.45;;;;;;;;;;4967432;28;20129;-34
2023/08/07 07:50:13;;;;;;;4.78;1.70;;;21.30;83.20;;;;;;4971291;28;20159;-39
2023/08/07 07:52:40;;;;;;;2.80;1.35;;;21.80;83.00;;;;;;4971100;28;20133;-40
2023/08/07 07:55:09;;;;;;;3.05;1.40;;;21.60;83.30;;;;;;4971697;28;20047;-39
2023/08/07 07:57:37;;;;;;;3.72;1.85;;;21.90;83.40;;;;;;4971629;28;20055;-38
2023/08/07 08:00:10;;;;;;;2.08;1.42;;;21.60;82.60;;;;;;4971172;28;20476;-39
2023/08/07 08:02:36;;;;;;;2.47;1.38;;;21.20;83.30;;;;;;4961090;28;20063;-39
2023/08/07 08:05:03;;;;;;;1.70;1.13;;;;;;;;;;4963404;28;20467;-34
2023/08/07 08:07:32;;;;;;;2.60;1.20;;;21.30;82.30;;;;;;4971450;28;20416;-39
2023/08/07 08:09:58;;;;;;;2.17;1.10;;;21.70;83.00;;;;;;4971357;28;20047;-40
2023/08/07 08:12:25;;;;;;;1.85;1.10;;;22.20;83.60;;;;;;4971100;28;20583;-35
2023/08/07 08:14:53;;;;;;;3.83;1.65;;;22.90;73.10;;;;;;4971133;28;20134;-36
2023/08/07 08:17:20;;;;;;;4.68;1.50;;;21.50;70.40;;;;;;4970830;28;20129;-35
2023/08/07 08:19:46;;;;;;;3.45;1.33;;;22.00;83.10;;;;;;4961153;28;20130;-36
2023/08/07 08:22:13;;;;;;;2.50;1.50;;;20.80;81.70;;;;;;4952141;28;20470;-35
2023/08/07 08:24:40;;;;;;;3.10;1.30;;;21.50;67.60;;;;;;4951774;28;20134;-36
2023/08/07 08:27:07;;;;;;;2.22;1.40;;;21.70;82.50;;;;;;4951490;28;20559;-39
2023/08/07 08:29:35;;;;;;;3.60;1.20;;;;;;;;;;4951503;28;20143;-35
2023/08/07 08:32:03;;;;;;;2.67;1.60;;;23.00;69.10;;;;;;4951192;29;20055;-32
2023/08/07 08:34:30;;;;;;;2.40;1.35;;;22.20;82.30;;;;;;4951278;28;20135;-40
2023/08/07 08:36:56;;;;;;;2.72;1.38;;;21.90;70.50;;;;;;4957875;28;20122;-36
2023/08/07 08:39:23;;;;;;;2.08;1.33;;;21.90;82.40;;;;;;4959548;28;20479;-36
2023/08/07 08:41:50;;;;;;;3.88;1.60;;;21.60;81.90;;;;;;4960778;28;20134;-37
2023/08/07 08:44:17;;;;;;;2.45;1.40;;;20.70;81.50;;;;;;4960408;28;20047;-34
2023/08/07 08:46:44;;;;;;;3.17;1.52;;;;;;;;;;4962037;28;20122;-38
2023/08/07 08:49:12;;;;;;;2.28;1.20;;;22.00;82.10;;;;;;4959679;28;20131;-37
2023/08/07 08:51:39;;;;;;;3.70;1.48;;;21.50;80.10;;;;;;4961189;28;20129;-37
2023/08/07 08:54:07;;;;;;;2.80;1.42;;;;;;;;;;4951520;28;20130;-36
2023/08/07 08:56:34;;;;;;;3.35;1.50;;;;;;;;;;4951203;28;20047;-39
2023/08/07 08:59:01;;;;;;;4.47;1.63;;;;;;;;;;4951255;28;20134;-36
2023/08/07 09:01:28;;;;;;;4.10;1.60;;;22.10;82.70;;;;;;4951022;29;20130;-38
2023/08/07 09:03:55;;;;;;;2.80;1.40;;;21.70;65.30;;;;;;4950973;29;20130;-37
2023/08/07 09:06:23;;;;;;;2.60;1.40;;;21.80;82.30;;;;;;4951201;28;20131;-37
2023/08/07 09:08:50;;;;;;;3.88;1.58;;;22.60;81.90;;;;;;4951810;28;20138;-37
2023/08/07 09:11:17;;;;;;;2.88;1.60;;;;;;;;;;4954874;28;20048;-35
2023/08/07 09:13:44;;;;;;;2.10;1.40;;;21.70;81.50;;;;;;4957337;28;20150;-37
2023/08/07 09:16:11;;;;;;;2.42;1.50;;;22.00;82.70;;;;;;4957224;28;20134;-36
2023/08/07 09:18:38;;;;;;;4.95;1.60;;;;;;;;;;4957653;28;20126;-34
2023/08/07 09:21:04;;;;;;;2.45;1.38;;;21.10;82.00;;;;;;4957244;28;20131;-38
2023/08/07 09:23:32;;;;;;;2.25;1.55;;;21.70;81.60;;;;;;4957200;28;20135;-37
2023/08/07 09:26:00;;;;;;;2.38;1.30;;;22.30;82.50;;;;;;4962092;28;20138;-37
2023/08/07 09:28:27;;;;;;;2.60;1.40;;;21.70;82.10;;;;;;4968496;28;20039;-39
2023/08/07 09:30:53;;;;;;;3.35;1.50;;;22.20;81.80;;;;;;4963035;28;20130;-38
2023/08/07 09:33:25;;;;;;;2.35;1.50;;;22.80;74.10;;;;;;4976605;28;20129;-36
2023/08/07 09:35:52;;;;;;;2.38;1.45;;;;;;;;;;4975948;28;20134;-34
2023/08/07 09:38:19;;;;;;;2.78;1.50;;;22.00;81.50;;;;;;4976522;28;20134;-40
2023/08/07 09:40:47;;;;;;;3.42;1.60;;;22.00;81.10;;;;;;4975219;28;20138;-36
2023/08/07 09:43:21;;;;;;;2.92;1.50;;;21.00;80.50;;;;;;4976162;28;20090;-40
2023/08/07 09:45:47;;;;;;;3.17;1.60;;;21.90;81.30;;;;;;4966678;28;20133;-37
2023/08/07 09:48:15;;;;;;;3.30;1.42;;;;;;;;;;4966510;28;20074;-34
2023/08/07 09:50:41;;;;;;;2.85;1.45;;;22.40;79.20;;;;;;4965036;28;20057;-39
2023/08/07 09:53:10;;;;;;;2.55;1.50;;;;;;;;;;4982306;28;20126;-36
2023/08/07 09:55:37;;;;;;;2.35;1.45;;;22.80;65.80;;;;;;4964232;28;20054;-36
2023/08/07 09:58:05;;;;;;;2.22;1.50;;;22.10;64.40;;;;;;4966098;28;20146;-34
2023/08/07 10:00:35;;;;;;;4.00;1.42;;;21.90;80.90;;;;;;4965561;28;20082;-34
2023/08/07 10:03:02;;;;;;;4.07;1.60;;;;;;;;;;4965024;28;20133;-34
2023/08/07 10:05:29;;;;;;;2.42;1.55;;;;;;;;;;4966677;28;20070;-36
2023/08/07 10:07:56;;;;;;;2.75;1.55;;;;;;;;;;4965739;28;20142;-32
2023/08/07 10:10:25;;;;;;;3.60;1.60;;;;;;;;;;4962056;28;20479;-33
2023/08/07 10:12:51;;;;;;;3.13;1.70;;;21.50;72.40;;;;;;4970861;28;20053;-35
2023/08/07 10:15:21;;;;;;;2.65;1.50;;;23.10;81.30;;;;;;5004892;28;20557;-34
2023/08/07 10:17:48;;;;;;;3.63;1.55;;;21.50;79.90;;;;;;4972671;28;20078;-37
2023/08/07 10:20:15;;;;;;;3.88;1.80;;;21.70;75.30;;;;;;4956399;28;20134;-34
2023/08/07 10:22:42;;;;;;;2.72;1.55;;;;;;;;;;4954228;28;20047;-35
2023/08/07 10:25:09;;;;;;;4.50;1.42;;;22.10;80.90;;;;;;4958182;28;20138;-36
2023/08/07 10:27:38;;;;;;;2.83;1.60;;;21.60;67.50;;;;;;4969780;28;20130;-35
2023/08/07 10:30:07;;;;;;;2.72;1.45;;;23.10;81.60;;;;;;4956236;28;20089;-39
2023/08/07 10:32:35;;;;;;;2.58;1.30;;;22.10;64.50;;;;;;4962558;28;20129;-35
2023/08/07 10:35:04;;;;;;;2.95;1.50;;;22.10;64.40;;;;;;4960781;28;20049;-34
2023/08/07 10:37:38;;;;;;;2.63;1.65;;;21.80;80.80;;;;;;4961629;28;20172;-39
2023/08/07 10:40:07;;;;;;;3.10;1.70;;;21.90;80.70;;;;;;4956611;28;20503;-36
2023/08/07 10:42:50;;;;;;;3.42;1.70;;;22.10;64.30;;;;;;4952945;28;20047;-35
2023/08/07 10:45:18;;;;;;;2.70;1.77;;;22.00;80.90;;;;;;4963573;28;20463;-36
2023/08/07 10:47:46;;;;;;;2.38;1.52;;;22.10;77.70;;;;;;4953259;28;20457;-31
2023/08/07 10:50:12;;;;;;;5.13;1.95;;;22.50;75.50;;;;;;4957314;28;20129;-32
2023/08/07 10:52:39;;;;;;;3.05;1.77;;;21.60;81.10;;;;;;4971991;28;20583;-32
2023/08/07 10:55:13;;;;;;;2.35;1.60;;;21.90;78.70;;;;;;4965844;28;20051;-31
2023/08/07 10:57:41;;;;;;;2.97;1.63;;;21.90;64.60;;;;;;4962853;28;20122;-31
2023/08/07 11:00:09;;;;;;;4.35;1.80;;;21.50;81.10;;;;;;4961070;28;20075;-30
2023/08/07 11:02:39;;;;;;;4.57;1.75;;;21.70;80.90;;;;;;4961870;28;20047;-30
2023/08/07 11:05:07;;;;;;;3.47;1.80;;;23.00;81.70;;;;;;4970370;28;20047;-31
2023/08/07 11:07:34;;;;;;;2.90;1.75;;;21.70;81.80;;;;;;4971991;28;20396;-30
2023/08/07 11:10:01;;;;;;;5.10;1.80;;;;;;;;;;4971959;28;20129;-35
2023/08/07 11:12:28;;;;;;;3.22;1.88;;;22.90;81.30;;;;;;4975362;28;20501;-31
2023/08/07 11:14:56;;;;;;;4.35;1.98;;;21.80;80.50;;;;;;4970972;28;20078;-31
2023/08/07 11:17:24;;;;;;;4.15;1.77;;;22.60;80.90;;;;;;4955988;28;20101;-31
2023/08/07 11:19:51;;;;;;;4.15;1.67;;;21.40;65.70;;;;;;4952699;28;20090;-32
2023/08/07 11:22:19;;;;;;;5.07;2.13;;;21.10;80.30;;;;;;4954890;28;20156;-31
2023/08/07 11:24:46;;;;;;;3.80;1.90;;;22.80;81.00;;;;;;4952558;28;20134;-31
2023/08/07 11:27:13;;;;;;;5.22;1.80;;;21.60;80.90;;;;;;4951728;28;20130;-31
2023/08/07 11:29:40;;;;;;;3.42;1.90;;;22.30;74.60;;;;;;4952632;28;20130;-31
2023/08/07 11:32:07;;;;;;;4.32;2.08;;;20.90;81.00;;;;;;4959330;28;20133;-31
2023/08/07 11:34:34;;;;;;;3.10;1.80;;;;;;;;;;4953494;28;20154;-34
2023/08/07 11:37:01;;;;;;;4.40;1.90;;;21.30;66.00;;;;;;4965553;28;20057;-31
2023/08/07 11:39:29;;;;;;;4.22;1.88;;;22.10;81.90;;;;;;4970371;28;20725;-30
2023/08/07 11:41:55;;;;;;;5.25;1.98;;;21.60;81.70;;;;;;4961917;28;20125;-31
2023/08/07 11:44:23;;;;;;;2.78;1.73;;;22.40;70.30;;;;;;4952007;28;20051;-31
2023/08/07 11:46:51;;;;;;;4.68;2.13;;;20.50;64.30;;;;;;4954330;28;20449;-34
2023/08/07 11:49:18;;;;;;;2.08;1.42;;;21.50;71.00;;;;;;4958387;28;20126;-32
2023/08/07 11:51:44;;;;;;;2.75;1.55;;;21.60;70.10;;;;;;4963703;28;20137;-31
2023/08/07 11:54:15;;;;;;;3.55;1.85;;;21.80;70.40;;;;;;4969809;28;20129;-31
2023/08/07 11:56:44;;;;;;;3.33;1.85;;;21.70;64.60;;;;;;4970224;28;20146;-32
2023/08/07 11:59:11;;;;;;;3.60;1.63;;;22.20;68.90;;;;;;4969804;28;20503;-31
2023/08/07 12:01:39;;;;;;;4.68;1.90;;;21.50;81.00;;;;;;4971106;28;20057;-30
2023/08/07 12:04:10;;;;;;;4.13;1.70;;;21.40;80.80;;;;;;4969478;28;20066;-31
2023/08/07 12:06:39;;;;;;;4.25;1.65;;;21.30;80.80;;;;;;4952049;29;20152;-31
2023/08/07 12:09:07;;;;;;;3.72;1.85;;;21.60;64.20;;;;;;4951675;28;20096;-32
2023/08/07 12:11:34;;;;;;;4.45;1.83;;;21.30;73.90;;;;;;4951951;28;20055;-31
2023/08/07 12:14:02;;;;;;;4.70;1.60;;;21.60;64.00;;;;;;4951430;28;20142;-35
2023/08/07 12:16:33;;;;;;;3.35;1.70;;;21.60;64.00;;;;;;4952047;28;20089;-33
2023/08/07 12:18:59;;;;;;;3.25;1.65;;;22.70;77.80;;;;;;4951877;28;20130;-31
2023/08/07 12:21:27;;;;;;;4.45;1.83;;;20.90;80.20;;;;;;4952667;28;20197;-32
2023/08/07 12:23:56;;;;;;;3.25;1.80;;;21.40;68.00;;;;;;4951683;28;20051;-32
2023/08/07 12:26:22;;;;;;;4.00;1.50;;;21.30;80.40;;;;;;4970225;28;20547;-30
2023/08/07 12:28:50;;;;;;;4.85;1.85;;;;;;;;;;4970936;28;20086;-34
2023/08/07 12:31:18;;;;;;;2.75;1.58;;;21.40;81.20;;;;;;4970836;28;20541;-30
2023/08/07 12:33:45;;;;;;;3.03;1.50;;;21.90;80.50;;;;;;4970667;28;20129;-30
2023/08/07 12:36:13;;;;;;;2.90;1.75;;;21.40;68.80;;;;;;4969394;28;20133;-33
2023/08/07 12:38:40;;;;;;;5.32;1.60;;;;;;;;;;4970679;28;20055;-32
2023/08/07 12:41:07;;;;;;;3.30;1.75;;;;;;;;;;4970587;28;20074;-30
2023/08/07 12:43:34;;;;;;;3.92;1.80;;;21.00;65.70;;;;;;4958906;28;20138;-32
2023/08/07 12:46:01;;;;;;;3.25;1.80;;;20.50;80.20;;;;;;4950450;28;20572;-39
2023/08/07 12:48:29;;;;;;;2.75;1.35;;;21.40;63.70;;;;;;4957520;28;20100;-34
2023/08/07 12:50:56;;;;;;;4.07;1.60;;;20.40;66.20;;;;;;4959266;28;20047;-36
2023/08/07 12:53:23;;;;;;;3.80;1.73;;;21.50;80.80;;;;;;4960743;28;20078;-39
2023/08/07 12:55:50;;;;;;;2.60;1.50;;;21.70;81.20;;;;;;4961188;28;20471;-37
2023/08/07 12:58:18;;;;;;;4.72;1.80;;;20.90;65.90;;;;;;4959336;28;20123;-36
2023/08/07 13:00:45;;;;;;;3.05;1.50;;;21.60;80.80;;;;;;4960236;28;20130;-36
2023/08/07 13:03:11;;;;;;;3.10;1.60;;;20.80;72.00;;;;;;4950440;28;20576;-39
2023/08/07 13:05:40;;;;;;;3.28;1.60;;;21.30;63.80;;;;;;4951188;28;20047;-35